Time;durP1;ratioP1;P1;durP2;ratioP2;P2;SDS_P1;SDS_P2;PMS_P1;PMS_P2;Temp;Humidity;BMP_temperature;BMP_pressure;BME280_temperature;BME280_humidity;BME280_pressure;Samples;Min_cycle;Max_cycle;Signal;HPM_P1;HPM_P2
2021/01/29 00:00:20;;;;;;;19.42;17.58;;;27.80;84.30;;;;;;5010978;28;20314;-48
2021/01/29 00:02:51;;;;;;;19.73;17.55;;;27.80;84.00;;;;;;5010982;28;20231;-50
2021/01/29 00:05:24;;;;;;;19.90;17.92;;;27.80;83.60;;;;;;5011161;28;20239;-50
2021/01/29 00:07:55;;;;;;;18.13;16.35;;;27.80;83.10;;;;;;5011074;28;20235;-48
2021/01/29 00:10:25;;;;;;;17.38;15.55;;;27.70;83.00;;;;;;5010926;28;20326;-47
2021/01/29 00:12:57;;;;;;;16.42;14.65;;;27.70;82.70;;;;;;5011125;28;20227;-49
2021/01/29 00:15:28;;;;;;;16.02;14.20;;;27.70;82.20;;;;;;5010807;28;20235;-51
2021/01/29 00:17:59;;;;;;;15.38;13.77;;;27.70;81.60;;;;;;5010373;28;20238;-48
2021/01/29 00:20:31;;;;;;;14.60;13.20;;;27.60;81.00;;;;;;5010708;28;20227;-48
2021/01/29 00:23:02;;;;;;;14.60;13.20;;;27.60;80.40;;;;;;5010581;28;20242;-48
2021/01/29 00:25:33;;;;;;;14.05;12.70;;;27.60;79.80;;;;;;5009802;28;20285;-50
2021/01/29 00:28:04;;;;;;;13.90;12.60;;;27.60;79.70;;;;;;5010698;28;20258;-51
2021/01/29 00:30:35;;;;;;;13.13;11.82;;;27.60;79.20;;;;;;5010507;28;20671;-51
2021/01/29 00:33:05;;;;;;;14.48;12.90;;;27.60;78.50;;;;;;5010567;28;20235;-50
2021/01/29 00:35:37;;;;;;;16.08;12.23;;;27.60;77.80;;;;;;5010478;28;20310;-48
2021/01/29 00:38:07;;;;;;;14.98;11.25;;;27.60;77.60;;;;;;5010375;28;20231;-48
2021/01/29 00:40:37;;;;;;;13.90;10.88;;;27.50;77.50;;;;;;5009867;28;20595;-48
2021/01/29 00:43:08;;;;;;;13.75;12.27;;;27.50;77.30;;;;;;5010041;28;20318;-50
2021/01/29 00:45:39;;;;;;;15.27;12.57;;;27.60;76.70;;;;;;5010118;28;20219;-54
2021/01/29 00:48:10;;;;;;;14.27;12.45;;;27.50;76.30;;;;;;5010017;28;20223;-50
2021/01/29 00:50:42;;;;;;;15.15;11.90;;;27.60;76.00;;;;;;5009809;28;20582;-52
2021/01/29 00:53:12;;;;;;;12.38;11.02;;;27.60;75.80;;;;;;5009866;28;20269;-51
2021/01/29 00:55:43;;;;;;;13.25;11.82;;;27.50;75.20;;;;;;5009787;28;20230;-49
2021/01/29 00:58:13;;;;;;;14.80;12.20;;;27.50;75.50;;;;;;5009563;28;20741;-49
2021/01/29 01:00:44;;;;;;;14.50;11.25;;;27.50;75.10;;;;;;5009835;28;20231;-51
2021/01/29 01:03:14;;;;;;;11.23;10.02;;;27.60;75.20;;;;;;5009625;28;20760;-51
2021/01/29 01:05:46;;;;;;;12.13;10.85;;;27.60;75.50;;;;;;5010298;28;20234;-51
2021/01/29 01:08:17;;;;;;;11.40;10.13;;;27.60;75.50;;;;;;5009926;28;20231;-49
2021/01/29 01:10:48;;;;;;;11.32;10.23;;;27.60;75.70;;;;;;5009177;28;20238;-49
2021/01/29 01:13:19;;;;;;;12.35;10.27;;;27.70;76.80;;;;;;5009415;28;20249;-48
2021/01/29 01:15:49;;;;;;;11.73;10.25;;;27.70;76.10;;;;;;5009361;28;20235;-48
2021/01/29 01:18:21;;;;;;;11.15;10.05;;;27.70;76.10;;;;;;5009565;28;20235;-48
2021/01/29 01:20:52;;;;;;;10.98;9.85;;;27.80;75.50;;;;;;5008987;28;20738;-49
2021/01/29 01:23:23;;;;;;;10.50;9.43;;;27.80;75.30;;;;;;5009546;28;20314;-48
2021/01/29 01:25:54;;;;;;;11.20;10.10;;;27.90;75.50;;;;;;5018383;28;20223;-47
2021/01/29 01:28:24;;;;;;;12.15;10.70;;;27.90;75.20;;;;;;5022364;28;20272;-47
2021/01/29 01:30:55;;;;;;;12.15;10.85;;;28.00;75.00;;;;;;5026272;28;20226;-47
2021/01/29 01:33:25;;;;;;;12.85;11.18;;;28.00;75.20;;;;;;5024202;28;20230;-48
2021/01/29 01:35:57;;;;;;;11.15;9.82;;;28.10;74.70;;;;;;5026399;28;20237;-49
2021/01/29 01:38:28;;;;;;;11.65;10.00;;;28.10;74.50;;;;;;5026357;28;20284;-49
2021/01/29 01:40:59;;;;;;;12.13;10.02;;;28.20;74.40;;;;;;5027141;28;20254;-51
2021/01/29 01:43:29;;;;;;;13.13;11.48;;;28.30;74.00;;;;;;5026032;28;20764;-47
2021/01/29 01:46:05;;;;;;;11.88;10.68;;;28.30;72.90;;;;;;5026341;28;20234;-50
2021/01/29 01:48:46;;;;;;;15.23;11.65;;;28.40;72.90;;;;;;5026464;28;20288;-52
2021/01/29 01:51:26;;;;;;;12.30;11.00;;;28.50;72.00;;;;;;5025205;28;20241;-53
2021/01/29 01:53:56;;;;;;;11.98;10.77;;;28.50;72.10;;;;;;5026135;28;20223;-51
2021/01/29 01:56:31;;;;;;;11.52;10.43;;;28.50;72.50;;;;;;5026194;28;20757;-53
2021/01/29 01:59:02;;;;;;;14.43;11.38;;;28.60;72.10;;;;;;5026081;28;20242;-50
2021/01/29 02:01:33;;;;;;;12.57;11.32;;;28.70;72.00;;;;;;5026436;28;20234;-48
2021/01/29 02:04:04;;;;;;;13.35;11.38;;;28.70;71.70;;;;;;5026020;28;20242;-52
2021/01/29 02:06:38;;;;;;;15.00;11.68;;;28.80;71.70;;;;;;4964162;28;20263;-47
2021/01/29 02:09:08;;;;;;;14.35;12.93;;;28.80;71.10;;;;;;4964615;28;20870;-48
2021/01/29 02:11:53;;;;;;;14.85;13.43;;;28.90;70.80;;;;;;4963685;28;20287;-52
2021/01/29 02:14:23;;;;;;;15.55;13.18;;;29.00;70.00;;;;;;4965105;28;20618;-51
2021/01/29 02:16:56;;;;;;;13.43;12.13;;;29.00;69.70;;;;;;4964258;28;20329;-50
2021/01/29 02:20:03;;;;;;;13.52;12.15;;;29.10;69.40;;;;;;4964795;28;20236;-52
2021/01/29 02:23:12;;;;;;;12.32;11.18;;;29.20;69.10;;;;;;4887482;29;20243;-49
2021/01/29 02:26:11;;;;;;;13.35;11.95;;;29.30;69.00;;;;;;4830116;29;20264;-50
2021/01/29 02:28:59;;;;;;;15.48;13.77;;;29.30;69.30;;;;;;4760518;30;20243;-51
2021/01/29 02:31:44;;;;;;;15.52;13.93;;;29.40;66.90;;;;;;4783706;29;20249;-49
2021/01/29 02:35:01;;;;;;;14.27;13.05;;;29.50;67.80;;;;;;4760441;30;20244;-50
2021/01/29 02:37:54;;;;;;;15.80;12.73;;;29.50;67.00;;;;;;4740468;30;20240;-50
2021/01/29 02:40:26;;;;;;;15.60;14.13;;;29.60;67.10;;;;;;4745392;29;20243;-50
2021/01/29 02:43:21;;;;;;;14.90;13.40;;;29.60;67.50;;;;;;4778138;29;20338;-51
2021/01/29 02:45:55;;;;;;;19.75;16.80;;;29.70;68.00;;;;;;4792275;29;20234;-49
2021/01/29 02:48:30;;;;;;;15.65;14.23;;;29.80;66.30;;;;;;4853742;29;20236;-49
2021/01/29 02:51:02;;;;;;;16.92;15.23;;;29.80;66.80;;;;;;4899046;29;20306;-49
2021/01/29 02:53:40;;;;;;;18.65;16.77;;;29.90;66.50;;;;;;4939709;29;20727;-51
2021/01/29 02:56:24;;;;;;;17.20;15.57;;;30.00;65.60;;;;;;4948360;29;20236;-49
2021/01/29 02:58:58;;;;;;;18.50;16.70;;;30.00;65.80;;;;;;4971984;28;20262;-47
2021/01/29 03:01:30;;;;;;;18.55;16.65;;;30.10;65.60;;;;;;4989918;28;20706;-48
2021/01/29 03:04:05;;;;;;;18.55;16.65;;;30.10;65.50;;;;;;4989549;28;20236;-48
2021/01/29 03:06:37;;;;;;;17.85;16.25;;;30.20;65.30;;;;;;4989608;28;20234;-47
2021/01/29 03:09:12;;;;;;;17.25;15.45;;;30.20;65.40;;;;;;4989288;28;20231;-47
2021/01/29 03:11:47;;;;;;;18.40;15.63;;;30.30;65.90;;;;;;5019887;28;20604;-47
2021/01/29 03:14:18;;;;;;;17.40;15.70;;;30.40;65.70;;;;;;4969510;28;20228;-50
2021/01/29 03:16:51;;;;;;;19.15;17.33;;;30.50;65.50;;;;;;4970324;28;20307;-48
2021/01/29 03:19:26;;;;;;;17.88;16.20;;;30.60;65.20;;;;;;4969536;28;20263;-48
2021/01/29 03:22:01;;;;;;;18.05;16.35;;;30.70;64.80;;;;;;4970396;28;20879;-48
2021/01/29 03:24:34;;;;;;;17.00;15.43;;;30.70;64.70;;;;;;4969947;28;20242;-49
2021/01/29 03:27:09;;;;;;;17.17;15.55;;;30.80;64.50;;;;;;4970508;28;20248;-50
2021/01/29 03:29:44;;;;;;;18.08;16.33;;;30.90;65.40;;;;;;4969232;28;20236;-52
2021/01/29 03:32:15;;;;;;;19.15;17.25;;;31.00;64.30;;;;;;4968574;28;20242;-49
2021/01/29 03:34:48;;;;;;;16.67;15.05;;;31.00;63.30;;;;;;4969047;28;20239;-53
2021/01/29 03:37:22;;;;;;;16.60;14.95;;;31.10;63.70;;;;;;4970345;28;20734;-52
2021/01/29 03:39:52;;;;;;;17.38;15.77;;;31.20;63.90;;;;;;4969383;28;20232;-52
2021/01/29 03:42:31;;;;;;;18.98;17.17;;;31.30;64.20;;;;;;4969379;28;20236;-53
2021/01/29 03:45:07;;;;;;;17.45;15.85;;;31.40;63.80;;;;;;4992999;28;20269;-50
2021/01/29 03:47:37;;;;;;;16.10;14.68;;;31.40;63.30;;;;;;5030660;28;20223;-52
2021/01/29 03:50:15;;;;;;;18.30;16.48;;;31.50;63.40;;;;;;5030985;28;20330;-52
2021/01/29 03:52:51;;;;;;;17.60;16.00;;;31.60;62.60;;;;;;5030418;28;20226;-51
2021/01/29 03:55:28;;;;;;;17.00;15.50;;;31.70;62.10;;;;;;5029731;28;20729;-54
2021/01/29 03:58:05;;;;;;;17.40;15.73;;;31.80;62.60;;;;;;4968376;28;20290;-50
2021/01/29 04:00:41;;;;;;;18.70;16.90;;;31.80;61.80;;;;;;4968468;28;20247;-51
2021/01/29 04:03:17;;;;;;;18.50;16.85;;;31.90;61.60;;;;;;4968910;28;20268;-52
2021/01/29 04:05:56;;;;;;;18.70;16.60;;;32.00;61.70;;;;;;4969187;28;20236;-50
2021/01/29 04:08:29;;;;;;;18.75;16.98;;;32.00;61.10;;;;;;4911907;29;20588;-53
2021/01/29 04:10:59;;;;;;;18.67;16.88;;;32.10;60.60;;;;;;4911853;29;20230;-50
2021/01/29 04:13:35;;;;;;;20.00;18.23;;;32.20;60.70;;;;;;4912045;29;20237;-52
2021/01/29 04:16:06;;;;;;;18.77;17.08;;;32.30;59.10;;;;;;4912005;29;20289;-49
2021/01/29 04:18:40;;;;;;;19.65;17.88;;;32.30;59.40;;;;;;4911878;29;20309;-52
2021/01/29 04:21:13;;;;;;;21.92;19.83;;;32.40;59.10;;;;;;4911837;29;20915;-51
2021/01/29 04:23:45;;;;;;;18.77;17.02;;;32.40;58.70;;;;;;4969040;28;20236;-51
2021/01/29 04:26:18;;;;;;;19.15;17.17;;;32.50;59.00;;;;;;4968839;28;20236;-48
2021/01/29 04:28:56;;;;;;;18.45;16.83;;;32.60;59.20;;;;;;4968349;28;20308;-49
2021/01/29 04:31:28;;;;;;;19.55;17.48;;;32.60;58.70;;;;;;4968894;28;20236;-49
2021/01/29 04:34:03;;;;;;;18.92;17.23;;;32.70;58.70;;;;;;5019220;28;20317;-52
2021/01/29 04:36:34;;;;;;;17.98;16.38;;;32.80;58.90;;;;;;5029792;28;20226;-49
2021/01/29 04:39:06;;;;;;;19.58;17.75;;;32.90;58.90;;;;;;5030201;28;20238;-51
2021/01/29 04:41:48;;;;;;;20.70;17.55;;;32.90;58.00;;;;;;4968542;28;20236;-49
2021/01/29 04:44:34;;;;;;;18.45;16.85;;;33.10;57.70;;;;;;4910929;29;20715;-50
2021/01/29 04:47:16;;;;;;;18.60;16.92;;;33.10;57.50;;;;;;4911122;29;20755;-50
2021/01/29 04:50:07;;;;;;;17.95;16.25;;;33.20;56.70;;;;;;4910831;29;20326;-50
2021/01/29 04:53:09;;;;;;;17.35;15.85;;;33.30;57.20;;;;;;4910132;29;20227;-54
2021/01/29 04:56:07;;;;;;;17.63;16.02;;;33.40;57.30;;;;;;4907597;29;20640;-48
2021/01/29 04:58:39;;;;;;;17.67;16.00;;;33.50;57.00;;;;;;4853973;29;20240;-49
2021/01/29 05:01:44;;;;;;;18.33;16.48;;;33.60;57.10;;;;;;4852133;29;20706;-50
2021/01/29 05:05:08;;;;;;;18.00;16.40;;;33.60;56.20;;;;;;4846498;29;20248;-49
2021/01/29 05:08:17;;;;;;;18.42;16.63;;;33.70;56.50;;;;;;4908339;29;20248;-50
2021/01/29 05:11:11;;;;;;;20.27;15.77;;;33.90;56.70;;;;;;4881109;29;20236;-51
2021/01/29 05:14:15;;;;;;;17.38;15.80;;;34.00;56.00;;;;;;4872026;29;20302;-53
2021/01/29 05:17:27;;;;;;;17.23;15.63;;;34.00;55.70;;;;;;4917854;29;20324;-52
2021/01/29 05:20:04;;;;;;;17.35;15.82;;;34.10;56.20;;;;;;4904538;29;20238;-51
2021/01/29 05:22:41;;;;;;;17.42;15.93;;;34.20;55.10;;;;;;4927144;29;20245;-50
2021/01/29 05:25:50;;;;;;;18.17;16.67;;;34.20;54.90;;;;;;4939770;29;20241;-51
2021/01/29 05:28:38;;;;;;;17.98;16.35;;;34.30;54.90;;;;;;4940179;29;20613;-50
2021/01/29 05:31:22;;;;;;;18.02;16.55;;;34.40;54.30;;;;;;4901046;29;20238;-51
2021/01/29 05:34:30;;;;;;;18.05;16.45;;;34.50;54.30;;;;;;4889177;29;20241;-50
2021/01/29 05:37:42;;;;;;;18.98;17.38;;;34.50;54.30;;;;;;4884027;29;20243;-50
2021/01/29 05:40:40;;;;;;;17.13;15.75;;;34.70;53.80;;;;;;4890404;29;20241;-50
2021/01/29 05:43:30;;;;;;;19.88;18.15;;;34.70;52.90;;;;;;4897186;29;20242;-50
2021/01/29 05:46:06;;;;;;;18.70;17.00;;;34.70;52.90;;;;;;4851679;29;20824;-49
2021/01/29 05:49:12;;;;;;;18.20;16.60;;;34.80;52.60;;;;;;4851656;29;20271;-50
2021/01/29 05:52:05;;;;;;;17.42;15.73;;;34.80;53.10;;;;;;4852015;29;20315;-49
2021/01/29 05:55:10;;;;;;;18.48;16.67;;;34.80;52.60;;;;;;4851406;29;20271;-52
2021/01/29 05:58:24;;;;;;;18.25;16.48;;;34.90;53.20;;;;;;4797256;29;20325;-50
2021/01/29 06:01:30;;;;;;;17.85;16.15;;;35.00;52.90;;;;;;4817366;29;20311;-48
2021/01/29 06:04:09;;;;;;;17.48;15.68;;;35.10;52.50;;;;;;4866005;29;20745;-50
2021/01/29 06:06:56;;;;;;;17.73;16.02;;;35.10;52.80;;;;;;4851593;29;20241;-51
2021/01/29 06:09:33;;;;;;;19.50;17.77;;;35.10;51.60;;;;;;4846275;29;20637;-48
2021/01/29 06:12:07;;;;;;;19.73;17.88;;;35.20;51.70;;;;;;4851238;29;20874;-47
2021/01/29 06:15:00;;;;;;;21.27;19.13;;;35.30;51.40;;;;;;4815142;29;20240;-51
2021/01/29 06:17:48;;;;;;;18.88;17.20;;;35.30;51.60;;;;;;4814995;29;20269;-51
2021/01/29 06:20:55;;;;;;;19.88;18.08;;;35.40;51.50;;;;;;4815319;29;20245;-51
2021/01/29 06:23:46;;;;;;;20.38;18.67;;;35.50;51.60;;;;;;4849788;29;20328;-51
2021/01/29 06:26:21;;;;;;;19.02;17.42;;;35.40;50.10;;;;;;4851021;29;20752;-50
2021/01/29 06:29:21;;;;;;;18.98;17.00;;;35.50;50.80;;;;;;4796540;29;20282;-48
2021/01/29 06:32:26;;;;;;;19.52;17.80;;;35.50;50.80;;;;;;4872748;29;20239;-49
2021/01/29 06:35:24;;;;;;;19.08;17.42;;;35.60;50.20;;;;;;4888470;29;20231;-48
2021/01/29 06:38:12;;;;;;;19.88;18.17;;;35.60;50.80;;;;;;4888455;29;20235;-47
2021/01/29 06:40:47;;;;;;;19.38;17.70;;;35.70;50.90;;;;;;4926619;29;21020;-50
2021/01/29 06:43:45;;;;;;;21.45;19.30;;;35.80;51.10;;;;;;4925976;29;20244;-50
2021/01/29 06:46:46;;;;;;;22.85;20.95;;;35.80;50.70;;;;;;4926123;29;20301;-51
2021/01/29 06:49:31;;;;;;;19.92;18.05;;;35.80;50.10;;;;;;4887979;29;20262;-49
2021/01/29 06:52:39;;;;;;;18.55;16.77;;;35.90;50.60;;;;;;4850327;29;20240;-52
2021/01/29 06:55:41;;;;;;;18.38;16.77;;;35.90;50.70;;;;;;4805554;29;20263;-48
2021/01/29 06:58:43;;;;;;;19.88;17.98;;;36.00;50.40;;;;;;4853234;29;20231;-48
2021/01/29 07:01:57;;;;;;;19.05;17.55;;;36.10;48.50;;;;;;4880987;29;20617;-50
2021/01/29 07:05:09;;;;;;;20.05;18.45;;;36.10;49.20;;;;;;4876779;29;20234;-48
2021/01/29 07:07:54;;;;;;;19.33;17.52;;;36.20;48.60;;;;;;4875759;29;20247;-52
2021/01/29 07:10:49;;;;;;;20.63;18.73;;;36.30;49.40;;;;;;4838817;29;20240;-52
2021/01/29 07:13:39;;;;;;;20.58;18.45;;;36.30;50.20;;;;;;4816768;29;20325;-47
2021/01/29 07:16:26;;;;;;;18.92;17.23;;;36.30;50.70;;;;;;4816905;29;20762;-49
2021/01/29 07:19:32;;;;;;;19.52;17.67;;;36.30;50.90;;;;;;4816282;29;20587;-49
2021/01/29 07:22:33;;;;;;;19.23;17.52;;;36.30;51.30;;;;;;4812610;29;20317;-51
2021/01/29 07:25:07;;;;;;;22.27;20.27;;;36.20;50.70;;;;;;4816546;29;20245;-48
2021/01/29 07:27:47;;;;;;;20.38;18.38;;;36.10;50.30;;;;;;4834874;29;20942;-50
2021/01/29 07:30:37;;;;;;;24.60;22.05;;;36.10;50.50;;;;;;4834699;29;20233;-50
2021/01/29 07:33:14;;;;;;;26.20;23.60;;;36.00;50.50;;;;;;4845141;29;20705;-51
2021/01/29 07:35:53;;;;;;;29.95;27.35;;;35.90;50.30;;;;;;4886908;29;20295;-49
2021/01/29 07:38:51;;;;;;;27.55;24.90;;;35.70;50.60;;;;;;4837887;29;20236;-50
2021/01/29 07:41:29;;;;;;;28.63;26.02;;;35.60;50.90;;;;;;4790099;29;20329;-49
2021/01/29 07:44:08;;;;;;;26.85;24.25;;;35.30;50.90;;;;;;4828476;29;20625;-51
2021/01/29 07:47:01;;;;;;;25.00;22.52;;;35.20;51.50;;;;;;4837857;29;20701;-47
2021/01/29 07:49:51;;;;;;;22.45;20.42;;;35.10;52.00;;;;;;4855542;29;20256;-48
2021/01/29 07:52:40;;;;;;;24.63;22.38;;;35.00;51.90;;;;;;4817423;29;20307;-52
2021/01/29 07:55:25;;;;;;;24.90;22.55;;;34.90;51.80;;;;;;4819324;29;20324;-49
2021/01/29 07:58:17;;;;;;;24.73;22.48;;;34.80;51.80;;;;;;4850785;29;20296;-48
2021/01/29 08:01:21;;;;;;;25.85;23.50;;;34.80;52.40;;;;;;4893244;29;20235;-49
2021/01/29 08:04:25;;;;;;;26.42;23.92;;;34.70;52.10;;;;;;4839299;29;20320;-50
2021/01/29 08:07:00;;;;;;;24.67;22.30;;;34.70;52.00;;;;;;4911997;29;20230;-49
2021/01/29 08:09:32;;;;;;;28.17;25.58;;;34.60;52.60;;;;;;4912418;29;20238;-47
2021/01/29 08:12:08;;;;;;;26.00;23.60;;;34.60;52.40;;;;;;4911948;29;20242;-49
2021/01/29 08:15:11;;;;;;;23.65;21.20;;;34.60;52.40;;;;;;4939573;28;20597;-47
2021/01/29 08:18:10;;;;;;;24.95;22.55;;;34.60;52.90;;;;;;4909021;29;21136;-50
2021/01/29 08:21:00;;;;;;;23.95;21.67;;;34.50;52.90;;;;;;4910513;29;20820;-48
2021/01/29 08:23:32;;;;;;;27.05;24.55;;;34.50;52.90;;;;;;4854687;29;20319;-48
2021/01/29 08:26:22;;;;;;;26.42;23.73;;;34.60;52.80;;;;;;4855113;29;20256;-51
2021/01/29 08:29:18;;;;;;;26.00;23.55;;;34.60;53.10;;;;;;4855169;29;20285;-50
2021/01/29 08:31:59;;;;;;;27.70;25.02;;;34.60;52.80;;;;;;4854855;29;20323;-48
2021/01/29 08:34:44;;;;;;;24.45;21.88;;;34.60;52.90;;;;;;4867326;29;20277;-47
2021/01/29 08:37:27;;;;;;;27.10;24.42;;;34.70;53.20;;;;;;4873577;29;20247;-47
2021/01/29 08:40:04;;;;;;;26.42;23.95;;;34.70;53.20;;;;;;4836716;29;20240;-49
2021/01/29 08:42:39;;;;;;;25.88;23.38;;;34.60;52.50;;;;;;4876847;29;20747;-48
2021/01/29 08:45:28;;;;;;;24.75;22.40;;;34.60;53.00;;;;;;4891508;29;20239;-49
2021/01/29 08:48:14;;;;;;;26.08;23.27;;;34.60;53.30;;;;;;4891844;29;20815;-48
2021/01/29 08:51:00;;;;;;;23.05;21.02;;;34.60;52.90;;;;;;4836402;29;20245;-49
2021/01/29 08:53:44;;;;;;;25.08;22.88;;;34.50;53.70;;;;;;4818117;29;20238;-48
2021/01/29 08:56:17;;;;;;;24.65;22.42;;;34.60;52.80;;;;;;4849692;29;20236;-48
2021/01/29 08:58:51;;;;;;;24.20;21.75;;;34.50;53.00;;;;;;4799905;29;20262;-50
2021/01/29 09:01:24;;;;;;;23.80;21.40;;;34.50;53.20;;;;;;4800143;29;20326;-50
2021/01/29 09:03:59;;;;;;;23.80;21.50;;;34.40;53.20;;;;;;4809746;29;20814;-48
2021/01/29 09:06:30;;;;;;;26.02;23.45;;;34.50;53.40;;;;;;4817819;29;20245;-49
2021/01/29 09:09:02;;;;;;;25.52;22.92;;;34.50;53.50;;;;;;4851442;29;20720;-50
2021/01/29 09:11:37;;;;;;;23.63;21.42;;;34.40;52.50;;;;;;4873622;29;20596;-50
2021/01/29 09:14:10;;;;;;;24.63;22.50;;;34.40;52.70;;;;;;4899938;29;21090;-51
2021/01/29 09:16:42;;;;;;;24.65;22.42;;;34.40;52.40;;;;;;4910910;29;20239;-48
2021/01/29 09:19:14;;;;;;;25.40;22.83;;;34.30;52.30;;;;;;4910580;29;20253;-49
2021/01/29 09:21:50;;;;;;;23.52;21.13;;;34.20;52.20;;;;;;4907855;29;20301;-49
2021/01/29 09:24:22;;;;;;;26.75;23.90;;;34.20;52.50;;;;;;4872844;29;20239;-48
2021/01/29 09:27:19;;;;;;;25.38;22.83;;;34.20;52.70;;;;;;4873360;29;20250;-48
2021/01/29 09:29:53;;;;;;;23.38;21.17;;;34.10;53.20;;;;;;4938690;28;20235;-48
2021/01/29 09:33:00;;;;;;;23.05;20.75;;;34.10;53.60;;;;;;4987245;28;20948;-47
2021/01/29 09:35:47;;;;;;;25.13;22.70;;;34.10;54.10;;;;;;4987028;28;20395;-51
2021/01/29 09:38:20;;;;;;;24.42;22.08;;;34.10;54.10;;;;;;4986324;28;20232;-54
2021/01/29 09:41:02;;;;;;;21.80;19.75;;;34.00;54.20;;;;;;4986688;28;20238;-50
2021/01/29 09:43:52;;;;;;;25.70;23.30;;;34.00;54.70;;;;;;4986960;28;20822;-51
2021/01/29 09:46:25;;;;;;;27.23;24.55;;;34.00;54.60;;;;;;4985197;28;20240;-48
2021/01/29 09:49:01;;;;;;;25.45;23.02;;;34.00;54.30;;;;;;4987000;28;20240;-49
2021/01/29 09:51:47;;;;;;;25.27;22.73;;;34.00;54.40;;;;;;4986689;28;20289;-48
2021/01/29 09:54:21;;;;;;;22.80;20.60;;;34.00;54.40;;;;;;4921815;29;20242;-51
2021/01/29 09:56:55;;;;;;;25.50;23.02;;;33.90;54.70;;;;;;4946911;28;20233;-51
2021/01/29 09:59:45;;;;;;;24.90;22.58;;;33.90;54.50;;;;;;4909877;29;20250;-52
2021/01/29 10:02:22;;;;;;;26.73;24.00;;;33.90;54.70;;;;;;4901825;29;20664;-50
2021/01/29 10:05:22;;;;;;;25.95;23.35;;;33.80;54.80;;;;;;4889595;29;20281;-50
2021/01/29 10:08:00;;;;;;;24.23;21.92;;;33.80;55.00;;;;;;4886842;29;20235;-50
2021/01/29 10:10:35;;;;;;;24.05;21.88;;;33.70;55.20;;;;;;4890945;29;20321;-48
2021/01/29 10:13:10;;;;;;;27.27;24.42;;;33.60;55.10;;;;;;4938401;28;20309;-51
2021/01/29 10:15:41;;;;;;;28.35;25.48;;;33.60;55.00;;;;;;4948018;28;20783;-49
2021/01/29 10:18:16;;;;;;;26.67;24.08;;;33.50;55.30;;;;;;4928601;29;20286;-50
2021/01/29 10:20:48;;;;;;;26.30;23.95;;;33.40;55.60;;;;;;4929143;29;20237;-53
2021/01/29 10:23:30;;;;;;;27.00;24.40;;;33.30;55.80;;;;;;4928308;29;20233;-48
2021/01/29 10:26:09;;;;;;;26.63;24.02;;;33.20;56.10;;;;;;4928491;29;20731;-54
2021/01/29 10:29:08;;;;;;;25.27;22.75;;;33.20;56.20;;;;;;4909825;29;20238;-48
2021/01/29 10:31:50;;;;;;;23.70;21.33;;;33.20;56.30;;;;;;4919886;29;20229;-54
2021/01/29 10:34:39;;;;;;;24.67;22.30;;;33.10;56.10;;;;;;4909176;29;20238;-48
2021/01/29 10:37:19;;;;;;;23.52;21.33;;;33.10;55.90;;;;;;4947790;28;20291;-49
2021/01/29 10:40:02;;;;;;;25.48;23.08;;;33.00;55.90;;;;;;4909069;29;20233;-50
2021/01/29 10:42:35;;;;;;;26.63;23.98;;;33.00;55.60;;;;;;4917154;29;20278;-52
2021/01/29 10:45:07;;;;;;;25.05;22.60;;;32.90;55.50;;;;;;4928343;29;20317;-48
2021/01/29 10:47:39;;;;;;;24.70;22.10;;;32.90;55.70;;;;;;4928455;29;20792;-48
2021/01/29 10:50:15;;;;;;;23.73;21.63;;;32.80;55.80;;;;;;4928270;29;20288;-51
2021/01/29 10:53:03;;;;;;;24.30;22.00;;;32.80;56.10;;;;;;4853309;29;20263;-50
2021/01/29 10:55:34;;;;;;;24.13;21.67;;;32.70;56.40;;;;;;4853237;29;20233;-48
2021/01/29 10:58:26;;;;;;;24.40;21.77;;;32.70;56.50;;;;;;4862812;29;20794;-48
2021/01/29 11:00:57;;;;;;;23.67;21.27;;;32.60;56.60;;;;;;4908740;29;20258;-48
2021/01/29 11:03:50;;;;;;;23.60;21.25;;;32.60;56.70;;;;;;4908552;29;20246;-51
2021/01/29 11:06:22;;;;;;;27.70;24.80;;;32.60;57.10;;;;;;4904963;29;20239;-49
2021/01/29 11:08:55;;;;;;;24.77;22.17;;;32.50;57.00;;;;;;4892633;29;20235;-50
2021/01/29 11:11:27;;;;;;;24.38;22.08;;;32.50;57.10;;;;;;4888932;29;20235;-49
2021/01/29 11:14:05;;;;;;;23.65;21.27;;;32.40;57.80;;;;;;4894003;29;20262;-48
2021/01/29 11:16:44;;;;;;;29.58;25.45;;;32.40;57.20;;;;;;4856730;29;20329;-51
2021/01/29 11:19:22;;;;;;;23.27;20.90;;;32.30;57.30;;;;;;4857027;29;20362;-48
2021/01/29 11:22:07;;;;;;;26.65;24.17;;;32.30;57.40;;;;;;4856774;29;20244;-51
2021/01/29 11:24:42;;;;;;;24.80;22.48;;;32.20;57.40;;;;;;4888776;29;20764;-54
2021/01/29 11:27:18;;;;;;;22.40;20.30;;;32.20;57.60;;;;;;4894143;29;20246;-49
2021/01/29 11:29:53;;;;;;;23.02;20.63;;;32.10;57.70;;;;;;4893968;29;20234;-50
2021/01/29 11:32:28;;;;;;;22.65;20.65;;;32.10;57.80;;;;;;4893728;29;20231;-52
2021/01/29 11:35:05;;;;;;;21.77;19.80;;;32.10;57.90;;;;;;4893779;29;20343;-53
2021/01/29 11:37:38;;;;;;;21.58;19.38;;;32.10;57.90;;;;;;4875020;29;20239;-54
2021/01/29 11:40:15;;;;;;;22.50;20.20;;;32.10;58.10;;;;;;4874963;29;20713;-54
2021/01/29 11:42:52;;;;;;;22.55;20.30;;;32.10;58.10;;;;;;4910776;29;20654;-50
2021/01/29 11:45:23;;;;;;;20.20;18.02;;;32.10;58.30;;;;;;4931122;29;20238;-50
2021/01/29 11:48:00;;;;;;;22.80;20.70;;;32.10;58.20;;;;;;4887170;29;20235;-50
2021/01/29 11:50:33;;;;;;;22.92;20.83;;;32.10;58.30;;;;;;4912352;29;20234;-47
2021/01/29 11:53:06;;;;;;;22.48;20.38;;;32.00;58.30;;;;;;4912174;29;20235;-50
2021/01/29 11:55:43;;;;;;;24.15;21.58;;;32.10;58.50;;;;;;4912061;29;20687;-49
2021/01/29 11:58:19;;;;;;;24.50;22.20;;;32.00;58.60;;;;;;4912173;29;20234;-50
2021/01/29 12:00:54;;;;;;;26.45;24.13;;;32.10;58.60;;;;;;4911896;29;20234;-51
2021/01/29 12:03:33;;;;;;;24.35;22.15;;;32.00;58.50;;;;;;4912017;29;20234;-49
2021/01/29 12:06:07;;;;;;;23.17;21.00;;;32.00;58.60;;;;;;4874299;29;20266;-51
2021/01/29 12:08:45;;;;;;;24.27;21.77;;;31.90;58.90;;;;;;4856056;29;20232;-50
2021/01/29 12:11:23;;;;;;;26.08;23.58;;;31.90;59.00;;;;;;4873254;29;20288;-50
2021/01/29 12:13:59;;;;;;;27.63;24.38;;;32.00;59.30;;;;;;4873949;29;20240;-51
2021/01/29 12:16:30;;;;;;;26.85;24.08;;;32.00;59.30;;;;;;4818759;29;20241;-50
2021/01/29 12:19:00;;;;;;;26.67;23.92;;;31.90;59.40;;;;;;4848011;29;20248;-53
2021/01/29 12:21:38;;;;;;;28.88;25.80;;;31.90;59.50;;;;;;4873288;29;20335;-52
2021/01/29 12:24:19;;;;;;;25.30;22.70;;;31.90;59.90;;;;;;4819155;29;20242;-49
2021/01/29 12:26:57;;;;;;;26.95;24.08;;;31.90;59.70;;;;;;4818778;29;20238;-52
2021/01/29 12:29:31;;;;;;;26.35;23.58;;;31.90;59.70;;;;;;4819017;29;20240;-52
2021/01/29 12:32:37;;;;;;;25.65;22.52;;;31.90;59.80;;;;;;4783316;29;20239;-52
2021/01/29 12:35:10;;;;;;;23.75;21.35;;;31.90;60.10;;;;;;4803607;29;20241;-50
2021/01/29 12:37:45;;;;;;;25.55;22.90;;;31.90;60.00;;;;;;4861918;29;20240;-48
2021/01/29 12:40:23;;;;;;;25.67;23.23;;;31.90;60.10;;;;;;4883183;29;20244;-53
2021/01/29 12:42:58;;;;;;;25.20;22.52;;;31.80;60.20;;;;;;4873038;29;20243;-51
2021/01/29 12:45:31;;;;;;;24.50;21.90;;;31.80;60.30;;;;;;4874047;29;20235;-51
2021/01/29 12:48:07;;;;;;;26.10;23.45;;;31.80;60.50;;;;;;4855224;29;20324;-53
2021/01/29 12:50:59;;;;;;;31.23;24.05;;;31.80;60.80;;;;;;4854852;29;20287;-53
2021/01/29 12:53:36;;;;;;;36.25;30.08;;;31.80;61.00;;;;;;4800297;29;20787;-53
2021/01/29 12:56:15;;;;;;;42.90;34.17;;;31.80;61.00;;;;;;4832787;29;20240;-54
2021/01/29 12:58:49;;;;;;;45.90;37.13;;;31.80;61.20;;;;;;4836914;29;20249;-50
2021/01/29 13:01:36;;;;;;;46.60;36.95;;;31.80;61.20;;;;;;4836587;29;20378;-53
2021/01/29 13:04:08;;;;;;;43.22;34.83;;;31.80;61.50;;;;;;4780602;29;20262;-51
2021/01/29 13:06:42;;;;;;;44.95;36.97;;;31.80;61.50;;;;;;4782269;29;20244;-53
2021/01/29 13:09:28;;;;;;;51.05;39.58;;;31.80;61.70;;;;;;4782132;29;20239;-54
2021/01/29 13:12:04;;;;;;;44.28;35.17;;;31.70;61.60;;;;;;4781690;29;20330;-52
2021/01/29 13:14:37;;;;;;;38.75;32.47;;;31.70;61.60;;;;;;4795835;29;20760;-54
2021/01/29 13:17:23;;;;;;;42.38;34.08;;;31.70;61.60;;;;;;4802295;29;20243;-54
2021/01/29 13:20:00;;;;;;;35.85;29.52;;;31.70;61.70;;;;;;4849228;29;20232;-52
2021/01/29 13:22:45;;;;;;;29.08;25.52;;;31.70;61.80;;;;;;4854690;29;20270;-51
2021/01/29 13:25:26;;;;;;;26.48;23.77;;;31.70;62.10;;;;;;4854005;29;20240;-52
2021/01/29 13:28:06;;;;;;;25.80;22.35;;;31.60;62.20;;;;;;4897823;29;20632;-50
2021/01/29 13:30:38;;;;;;;23.10;20.70;;;31.70;62.20;;;;;;4929246;29;20329;-49
2021/01/29 13:33:14;;;;;;;23.25;20.95;;;31.60;62.00;;;;;;4921788;29;20242;-50
2021/01/29 13:35:44;;;;;;;21.65;19.60;;;31.60;62.30;;;;;;4972694;28;20650;-48